Time;durP1;ratioP1;P1;durP2;ratioP2;P2;SDS_P1;SDS_P2;PMS_P1;PMS_P2;Temp;Humidity;BMP_temperature;BMP_pressure;BME280_temperature;BME280_humidity;BME280_pressure;Samples;Min_cycle;Max_cycle;Signal;HPM_P1;HPM_P2
2023/06/25 00:01:46;;;;;;;18.33;12.57;;;17.90;99.90;;;;;;5016319;28;20253;-57
2023/06/25 00:04:12;;;;;;;17.23;13.47;;;17.90;99.90;;;;;;5016369;28;20191;-57
2023/06/25 00:06:38;;;;;;;18.00;12.27;;;17.80;1.00;;;;;;5016522;28;20187;-57
2023/06/25 00:09:03;;;;;;;22.77;13.93;;;17.80;1.00;;;;;;5016364;28;20274;-56
2023/06/25 00:11:29;;;;;;;18.10;13.30;;;17.70;1.00;;;;;;5016484;28;20193;-57
2023/06/25 00:13:55;;;;;;;21.73;16.00;;;17.70;1.00;;;;;;5016020;28;20222;-56
2023/06/25 00:16:20;;;;;;;17.27;14.10;;;17.70;99.90;;;;;;5016197;28;20543;-57
2023/06/25 00:18:47;;;;;;;23.13;14.97;;;17.60;1.00;;;;;;5016360;28;20182;-56
2023/06/25 00:21:13;;;;;;;22.73;16.00;;;17.60;1.00;;;;;;5016149;28;20186;-57
2023/06/25 00:23:38;;;;;;;20.87;14.50;;;17.50;1.00;;;;;;5016248;28;20418;-57
2023/06/25 00:26:04;;;;;;;20.50;13.77;;;17.50;99.90;;;;;;5015860;28;20750;-57
2023/06/25 00:28:30;;;;;;;22.63;15.10;;;17.50;99.90;;;;;;5015955;28;20526;-57
2023/06/25 00:30:55;;;;;;;21.93;14.37;;;17.50;99.90;;;;;;5016119;28;20237;-57
2023/06/25 00:33:21;;;;;;;20.13;13.70;;;17.50;1.00;;;;;;5015718;28;20222;-57
2023/06/25 00:35:49;;;;;;;17.90;13.43;;;17.40;1.00;;;;;;5015481;28;20176;-58
2023/06/25 00:38:15;;;;;;;21.50;13.70;;;17.40;99.90;;;;;;5016084;28;20520;-57
2023/06/25 00:40:40;;;;;;;20.37;14.43;;;17.40;1.00;;;;;;5015644;28;20412;-57
2023/06/25 00:43:06;;;;;;;24.37;16.67;;;17.30;99.90;;;;;;5016064;28;20282;-57
2023/06/25 00:45:34;;;;;;;22.40;16.23;;;17.30;1.00;;;;;;5015936;28;20192;-58
2023/06/25 00:48:01;;;;;;;23.53;14.80;;;17.30;99.90;;;;;;5015393;28;20228;-57
2023/06/25 00:50:27;;;;;;;23.83;17.07;;;17.20;1.00;;;;;;5015484;28;20419;-57
2023/06/25 00:52:52;;;;;;;28.53;18.17;;;17.20;99.90;;;;;;5014943;28;20501;-57
2023/06/25 00:55:19;;;;;;;24.53;16.07;;;17.20;1.00;;;;;;5015324;28;20523;-57
2023/06/25 00:57:45;;;;;;;29.33;18.80;;;17.20;99.90;;;;;;5015523;28;20183;-57
2023/06/25 01:00:16;;;;;;;20.90;15.20;;;17.20;1.00;;;;;;5015645;28;20492;-56
2023/06/25 01:03:03;;;;;;;20.03;14.47;;;17.10;99.90;;;;;;5014647;28;20409;-58
2023/06/25 01:05:39;;;;;;;26.60;17.37;;;17.10;16.90;;;;;;5013709;28;20410;-57
2023/06/25 01:08:08;;;;;;;33.73;17.20;;;17.10;99.90;;;;;;5014333;28;20419;-57
2023/06/25 01:10:35;;;;;;;25.20;16.27;;;17.00;1.00;;;;;;5014022;28;20454;-57
2023/06/25 01:13:01;;;;;;;22.20;15.70;;;17.00;99.90;;;;;;5013251;28;20524;-57
2023/06/25 01:15:27;;;;;;;23.80;16.00;;;17.00;98.00;;;;;;5013546;28;20420;-57
2023/06/25 01:17:54;;;;;;;25.27;17.43;;;17.00;99.90;;;;;;5013831;28;20417;-57
2023/06/25 01:20:21;;;;;;;26.37;17.60;;;16.90;99.90;;;;;;5013582;28;20511;-57
2023/06/25 01:22:48;;;;;;;23.40;16.10;;;16.90;99.90;;;;;;5013871;28;20426;-57
2023/06/25 01:25:14;;;;;;;24.97;16.60;;;16.90;99.90;;;;;;5013478;28;20413;-57
2023/06/25 01:27:40;;;;;;;27.97;18.10;;;16.90;1.00;;;;;;5013603;28;20410;-57
2023/06/25 01:30:07;;;;;;;27.40;19.07;;;16.80;1.00;;;;;;5012977;28;20328;-57
2023/06/25 01:32:33;;;;;;;32.20;20.20;;;16.80;1.00;;;;;;5013043;28;20772;-56
2023/06/25 01:34:59;;;;;;;33.77;20.60;;;16.80;1.00;;;;;;5013533;28;20445;-56
2023/06/25 01:37:24;;;;;;;29.57;20.50;;;16.80;1.00;;;;;;5013446;28;20237;-56
2023/06/25 01:39:55;;;;;;;32.40;21.43;;;16.70;1.00;;;;;;5013202;28;20192;-56
2023/06/25 01:42:21;;;;;;;40.17;23.30;;;16.70;56.20;;;;;;5013095;28;20190;-56
2023/06/25 01:44:46;;;;;;;31.13;21.50;;;16.70;99.90;;;;;;5012566;28;20431;-55
2023/06/25 01:47:13;;;;;;;33.07;22.70;;;16.70;99.90;;;;;;5013339;28;20265;-58
2023/06/25 01:49:38;;;;;;;32.63;21.37;;;16.70;99.90;;;;;;5013301;28;20191;-56
2023/06/25 01:52:05;;;;;;;35.30;22.00;;;16.70;99.90;;;;;;5013271;28;20551;-57
2023/06/25 01:54:30;;;;;;;32.03;20.27;;;16.70;99.90;;;;;;5012325;28;20254;-57
2023/06/25 01:56:56;;;;;;;33.60;21.10;;;16.70;99.90;;;;;;5012309;28;20423;-56
2023/06/25 01:59:22;;;;;;;33.43;22.77;;;16.70;99.90;;;;;;5011731;28;20190;-57
2023/06/25 02:01:48;;;;;;;38.23;23.20;;;16.60;99.90;;;;;;5011755;28;20414;-57
2023/06/25 02:04:13;;;;;;;27.77;19.50;;;16.60;99.90;;;;;;5012156;28;20191;-57
2023/06/25 02:06:39;;;;;;;31.77;20.50;;;16.60;99.90;;;;;;5011949;28;20265;-56
2023/06/25 02:09:04;;;;;;;39.17;21.90;;;16.60;99.90;;;;;;5008759;28;20558;-56
2023/06/25 02:11:30;;;;;;;34.13;21.20;;;16.60;99.90;;;;;;4994580;28;20209;-55
2023/06/25 02:13:56;;;;;;;28.60;18.70;;;16.60;99.90;;;;;;4999148;28;20291;-56
2023/06/25 02:16:21;;;;;;;41.53;21.93;;;16.50;99.90;;;;;;4995398;28;20231;-57
2023/06/25 02:18:49;;;;;;;32.60;21.03;;;16.60;99.90;;;;;;4994956;28;20275;-57
2023/06/25 02:21:15;;;;;;;35.80;22.20;;;16.50;99.90;;;;;;4995243;28;20683;-57
2023/06/25 02:23:40;;;;;;;22.70;16.67;;;16.50;99.90;;;;;;4998129;28;20444;-57
2023/06/25 02:26:06;;;;;;;28.30;19.07;;;16.50;99.90;;;;;;4996002;28;20597;-55
2023/06/25 02:28:31;;;;;;;36.23;23.10;;;16.50;99.90;;;;;;4995677;28;20191;-55
2023/06/25 02:30:57;;;;;;;32.60;20.93;;;16.40;99.90;;;;;;4998574;28;20642;-56
2023/06/25 02:33:23;;;;;;;33.83;20.80;;;16.40;99.90;;;;;;4994512;28;20226;-57
2023/06/25 02:35:48;;;;;;;34.27;22.53;;;16.40;99.90;;;;;;4994871;28;20211;-56
2023/06/25 02:38:14;;;;;;;35.40;22.07;;;16.30;99.90;;;;;;4995210;28;20573;-56
2023/06/25 02:40:40;;;;;;;32.27;21.60;;;16.30;99.90;;;;;;4994037;28;20274;-56
2023/06/25 02:43:05;;;;;;;39.83;23.60;;;16.30;99.90;;;;;;4994434;28;20202;-57
2023/06/25 02:45:31;;;;;;;36.50;23.03;;;16.30;99.90;;;;;;4995126;28;20195;-56
2023/06/25 02:47:56;;;;;;;34.23;20.30;;;16.30;99.90;;;;;;4998166;28;20664;-55
2023/06/25 02:50:22;;;;;;;38.77;21.60;;;16.30;99.90;;;;;;4995086;28;20554;-57
2023/06/25 02:52:47;;;;;;;30.47;18.90;;;16.30;99.90;;;;;;4959433;28;1076376;-57
2023/06/25 02:55:13;;;;;;;32.73;21.30;;;16.20;99.90;;;;;;4996209;28;20202;-57
2023/06/25 02:57:38;;;;;;;33.83;21.20;;;16.30;99.90;;;;;;4996110;28;20197;-56
2023/06/25 03:00:05;;;;;;;32.23;21.07;;;16.20;99.90;;;;;;4995987;28;20206;-56
2023/06/25 03:02:30;;;;;;;29.93;20.50;;;16.20;99.90;;;;;;4995035;28;20225;-56
2023/06/25 03:04:56;;;;;;;31.80;20.60;;;16.20;99.90;;;;;;4995771;28;20470;-56
2023/06/25 03:07:21;;;;;;;29.13;19.17;;;16.20;99.90;;;;;;4995781;28;20686;-57
2023/06/25 03:09:47;;;;;;;30.43;18.77;;;16.20;99.90;;;;;;4994946;28;20245;-56
2023/06/25 03:12:13;;;;;;;31.80;20.63;;;16.20;99.90;;;;;;4995741;28;20211;-55
2023/06/25 03:14:39;;;;;;;34.10;23.23;;;16.20;99.90;;;;;;4994746;28;20550;-56
2023/06/25 03:17:05;;;;;;;39.40;24.93;;;16.10;99.90;;;;;;4995630;28;20292;-57
2023/06/25 03:19:31;;;;;;;32.03;20.53;;;16.10;99.90;;;;;;4995279;28;20438;-56
2023/06/25 03:21:57;;;;;;;30.60;20.00;;;16.10;99.90;;;;;;4995308;28;20649;-56
2023/06/25 03:24:23;;;;;;;29.13;19.17;;;16.10;99.90;;;;;;4995005;28;20533;-56
2023/06/25 03:26:48;;;;;;;28.50;18.80;;;16.10;99.90;;;;;;4999616;28;20192;-55
2023/06/25 03:29:14;;;;;;;33.30;21.37;;;16.20;99.90;;;;;;4994977;28;20197;-56
2023/06/25 03:31:40;;;;;;;35.53;23.60;;;16.20;99.90;;;;;;4995268;28;20191;-56
2023/06/25 03:34:05;;;;;;;36.60;24.00;;;16.20;99.90;;;;;;4995503;28;20236;-55
2023/06/25 03:36:32;;;;;;;30.13;19.10;;;16.20;99.90;;;;;;4994747;28;20182;-55
2023/06/25 03:38:58;;;;;;;38.27;24.27;;;16.20;99.90;;;;;;4995104;28;20195;-56
2023/06/25 03:41:24;;;;;;;34.47;23.30;;;16.20;99.90;;;;;;4995103;28;20551;-57
2023/06/25 03:43:50;;;;;;;36.77;24.20;;;16.30;99.90;;;;;;4994408;28;20640;-56
2023/06/25 03:46:16;;;;;;;39.33;23.90;;;16.30;99.90;;;;;;4994812;28;20513;-55
2023/06/25 03:48:42;;;;;;;34.63;23.10;;;16.30;99.90;;;;;;4995861;28;20648;-56
2023/06/25 03:51:08;;;;;;;34.67;23.90;;;16.30;99.90;;;;;;4995660;28;20187;-57
2023/06/25 03:53:34;;;;;;;38.43;25.40;;;16.30;99.90;;;;;;4996103;28;20504;-56
2023/06/25 03:56:00;;;;;;;39.47;26.17;;;16.30;99.90;;;;;;4998492;28;20437;-55
2023/06/25 03:58:25;;;;;;;33.27;22.10;;;16.40;99.90;;;;;;4998021;28;20203;-55
2023/06/25 04:00:51;;;;;;;29.50;21.10;;;16.50;99.90;;;;;;4998387;28;20228;-56
2023/06/25 04:03:16;;;;;;;42.87;25.30;;;16.50;99.90;;;;;;4999367;28;20284;-55
2023/06/25 04:05:42;;;;;;;44.30;23.80;;;16.50;99.90;;;;;;4998023;28;20187;-55
2023/06/25 04:08:08;;;;;;;39.07;25.23;;;16.60;99.90;;;;;;5005981;28;20184;-56
2023/06/25 04:10:33;;;;;;;35.23;22.53;;;16.70;99.90;;;;;;4998324;28;20194;-56
2023/06/25 04:12:59;;;;;;;36.97;23.57;;;16.70;99.90;;;;;;4998334;28;20671;-56
2023/06/25 04:15:24;;;;;;;23.37;16.87;;;16.80;99.90;;;;;;4997782;28;23464;-56
2023/06/25 04:17:50;;;;;;;34.73;22.00;;;16.80;99.90;;;;;;4997908;28;20179;-56
2023/06/25 04:20:16;;;;;;;36.13;21.93;;;16.90;99.90;;;;;;4997862;28;20192;-58
2023/06/25 04:22:41;;;;;;;39.80;23.97;;;16.90;99.90;;;;;;4997899;28;20562;-57
2023/06/25 04:25:07;;;;;;;29.90;19.70;;;17.00;99.90;;;;;;4998119;28;20190;-56
2023/06/25 04:27:32;;;;;;;28.00;19.80;;;17.10;99.90;;;;;;4997406;28;20278;-57
2023/06/25 04:29:58;;;;;;;31.30;21.20;;;17.20;99.90;;;;;;4999540;28;20193;-56
2023/06/25 04:32:24;;;;;;;24.00;18.30;;;17.30;99.90;;;;;;4998385;28;20339;-56
2023/06/25 04:34:49;;;;;;;37.23;24.37;;;17.50;99.90;;;;;;4997159;28;20326;-56
2023/06/25 04:37:15;;;;;;;31.30;20.67;;;17.50;99.90;;;;;;4997772;28;20196;-56
2023/06/25 04:39:41;;;;;;;31.93;23.07;;;17.60;99.90;;;;;;4998050;28;20191;-57
2023/06/25 04:42:07;;;;;;;31.10;21.57;;;17.60;99.90;;;;;;4997494;28;21616;-56
2023/06/25 04:44:32;;;;;;;36.33;24.20;;;17.70;99.90;;;;;;4997586;28;20196;-57
2023/06/25 04:46:58;;;;;;;34.73;23.27;;;17.80;99.90;;;;;;5003232;28;20538;-56
2023/06/25 04:49:24;;;;;;;36.27;22.90;;;18.00;99.90;;;;;;5002805;28;20199;-57
2023/06/25 04:51:49;;;;;;;34.43;24.20;;;18.20;99.90;;;;;;4997314;28;20571;-57
2023/06/25 04:54:15;;;;;;;38.17;25.00;;;18.40;99.90;;;;;;4997670;28;20239;-56
2023/06/25 04:56:41;;;;;;;36.30;24.83;;;18.50;99.90;;;;;;5000624;28;20262;-57
2023/06/25 04:59:06;;;;;;;38.53;25.30;;;18.70;99.90;;;;;;4997195;28;20605;-57
2023/06/25 05:01:32;;;;;;;36.50;25.07;;;18.80;99.90;;;;;;4997598;28;20184;-57
2023/06/25 05:03:58;;;;;;;34.97;23.63;;;19.00;99.90;;;;;;4996598;28;20209;-57
2023/06/25 05:06:24;;;;;;;34.57;24.93;;;19.20;99.90;;;;;;4996747;28;20253;-57
2023/06/25 05:08:49;;;;;;;30.97;22.13;;;19.30;99.90;;;;;;4997020;28;20442;-57
2023/06/25 05:11:15;;;;;;;34.87;24.03;;;19.50;99.90;;;;;;4997017;28;20214;-57
2023/06/25 05:13:41;;;;;;;28.20;20.60;;;19.70;99.90;;;;;;4997011;28;20303;-57
2023/06/25 05:16:07;;;;;;;28.13;18.80;;;19.80;99.90;;;;;;4998217;28;20617;-57
2023/06/25 05:18:32;;;;;;;27.93;17.90;;;20.10;99.90;;;;;;4996977;28;20241;-57
2023/06/25 05:20:58;;;;;;;26.33;18.73;;;20.10;99.90;;;;;;4996564;28;20285;-57
2023/06/25 05:23:24;;;;;;;23.10;17.37;;;20.20;99.90;;;;;;4997122;28;20196;-57
2023/06/25 05:25:50;;;;;;;23.40;17.13;;;20.30;99.90;;;;;;4998138;28;20204;-57
2023/06/25 05:28:15;;;;;;;20.23;15.97;;;20.50;99.90;;;;;;4999467;28;20441;-57
2023/06/25 05:30:41;;;;;;;23.30;17.07;;;20.70;20.60;;;;;;4998738;28;20246;-57
2023/06/25 05:33:07;;;;;;;22.40;15.20;;;21.00;1.00;;;;;;4998105;28;20636;-55
2023/06/25 05:35:32;;;;;;;20.90;15.13;;;21.10;1.00;;;;;;4996310;28;20192;-57
2023/06/25 05:37:58;;;;;;;23.37;16.73;;;21.20;1.00;;;;;;4996682;28;20278;-58
2023/06/25 05:40:25;;;;;;;20.33;15.20;;;21.20;99.90;;;;;;4996400;28;20196;-56
2023/06/25 05:42:50;;;;;;;23.77;15.93;;;21.40;99.90;;;;;;4996509;28;20206;-56
2023/06/25 05:45:16;;;;;;;21.63;15.33;;;21.50;99.90;;;;;;4996432;28;20445;-56
2023/06/25 05:47:42;;;;;;;18.60;14.23;;;21.60;99.90;;;;;;4997387;28;20196;-56
2023/06/25 05:50:08;;;;;;;19.17;14.87;;;21.60;99.90;;;;;;4998678;28;20668;-56
2023/06/25 05:52:34;;;;;;;16.60;12.90;;;21.60;96.90;;;;;;4995394;28;20494;-56
2023/06/25 05:55:00;;;;;;;16.50;11.53;;;21.70;88.10;;;;;;4995842;28;20449;-56
2023/06/25 05:57:25;;;;;;;13.83;11.80;;;21.80;65.30;;;;;;4995994;28;20187;-56
2023/06/25 05:59:51;;;;;;;15.20;11.77;;;21.80;1.00;;;;;;4996478;28;20344;-56
2023/06/25 06:02:17;;;;;;;19.63;11.97;;;21.80;1.00;;;;;;4995653;28;20192;-56
2023/06/25 06:04:42;;;;;;;16.33;10.97;;;21.80;1.00;;;;;;4996039;28;20188;-56
2023/06/25 06:07:08;;;;;;;14.30;11.53;;;21.80;1.00;;;;;;4999382;28;20254;-56
2023/06/25 06:09:33;;;;;;;11.40;10.17;;;21.80;1.00;;;;;;4998005;28;20190;-56
2023/06/25 06:11:59;;;;;;;14.13;11.17;;;21.70;1.00;;;;;;4995941;28;20189;-56
2023/06/25 06:14:25;;;;;;;14.20;9.17;;;21.90;1.00;;;;;;5000708;28;20197;-57
2023/06/25 06:16:50;;;;;;;11.60;9.63;;;22.20;1.00;;;;;;5002071;28;20279;-56
2023/06/25 06:19:16;;;;;;;13.27;10.63;;;22.60;1.00;;;;;;4999279;28;20663;-56
2023/06/25 06:21:42;;;;;;;14.80;10.80;;;23.00;1.00;;;;;;4995485;28;20185;-56
2023/06/25 06:24:07;;;;;;;13.80;11.37;;;23.40;1.00;;;;;;4999183;28;20217;-56
2023/06/25 06:26:35;;;;;;;12.33;10.53;;;23.70;1.00;;;;;;4996100;28;20200;-56
2023/06/25 06:29:03;;;;;;;17.73;11.50;;;23.90;1.00;;;;;;4999903;28;20187;-56
2023/06/25 06:31:32;;;;;;;11.17;9.27;;;24.10;1.00;;;;;;4995214;28;20469;-57
2023/06/25 06:33:58;;;;;;;10.87;9.77;;;24.40;1.00;;;;;;4995489;28;20461;-56
2023/06/25 06:36:23;;;;;;;13.70;9.90;;;24.50;1.00;;;;;;4995501;28;21004;-56
2023/06/25 06:38:50;;;;;;;12.20;9.53;;;24.60;1.00;;;;;;4996073;28;20222;-57
2023/06/25 06:41:15;;;;;;;11.13;9.37;;;24.70;1.00;;;;;;4995003;28;20196;-56
2023/06/25 06:43:41;;;;;;;10.27;8.20;;;24.90;1.00;;;;;;4995800;28;20445;-56
2023/06/25 06:46:06;;;;;;;15.90;10.20;;;25.10;1.00;;;;;;4996271;28;20274;-56
2023/06/25 06:48:32;;;;;;;11.23;9.07;;;25.00;1.00;;;;;;5000737;28;20188;-56
2023/06/25 06:50:58;;;;;;;12.37;9.47;;;25.10;1.00;;;;;;5001056;28;20215;-56
2023/06/25 06:53:25;;;;;;;12.20;9.90;;;25.30;1.00;;;;;;4998365;28;20661;-56
2023/06/25 06:55:51;;;;;;;12.87;9.10;;;25.50;1.00;;;;;;4995860;28;20561;-56
2023/06/25 06:58:17;;;;;;;8.40;7.50;;;25.70;1.00;;;;;;4995227;28;20438;-56
2023/06/25 07:00:42;;;;;;;10.33;7.60;;;25.90;1.00;;;;;;4995024;28;20202;-55
2023/06/25 07:03:08;;;;;;;11.53;7.93;;;25.90;1.00;;;;;;4994971;28;20752;-57
2023/06/25 07:05:33;;;;;;;10.73;8.60;;;25.90;1.00;;;;;;4995262;28;20209;-57
2023/06/25 07:07:59;;;;;;;11.10;8.70;;;25.90;1.00;;;;;;4995506;28;20192;-57
2023/06/25 07:10:25;;;;;;;10.33;8.43;;;26.20;1.00;;;;;;4994524;28;20212;-55
2023/06/25 07:12:50;;;;;;;12.00;9.10;;;26.50;1.00;;;;;;4995122;28;20212;-55
2023/06/25 07:15:16;;;;;;;10.70;9.20;;;26.70;1.00;;;;;;4996775;28;20332;-55
2023/06/25 07:17:41;;;;;;;9.80;8.63;;;27.10;1.00;;;;;;4994710;28;20196;-55
2023/06/25 07:20:08;;;;;;;14.33;8.33;;;27.30;1.00;;;;;;4995120;28;20195;-55
2023/06/25 07:22:34;;;;;;;11.70;8.30;;;27.50;1.00;;;;;;4995072;28;20208;-57
2023/06/25 07:25:02;;;;;;;12.10;8.13;;;27.60;1.00;;;;;;4994714;28;20798;-56
2023/06/25 07:27:28;;;;;;;8.27;7.33;;;27.80;1.00;;;;;;5002322;28;20192;-56
2023/06/25 07:29:53;;;;;;;10.10;7.10;;;27.90;1.00;;;;;;5003979;28;20864;-56
2023/06/25 07:32:19;;;;;;;9.07;6.50;;;27.80;1.00;;;;;;5005125;28;20215;-55
2023/06/25 07:34:45;;;;;;;7.17;6.47;;;27.80;1.00;;;;;;4997877;28;20216;-55
2023/06/25 07:37:10;;;;;;;7.83;6.93;;;27.80;1.00;;;;;;5002863;28;20191;-55
2023/06/25 07:39:36;;;;;;;7.10;6.27;;;27.80;1.00;;;;;;5001545;28;20640;-55
2023/06/25 07:42:02;;;;;;;7.03;6.30;;;28.10;1.00;;;;;;4999376;28;20246;-55
2023/06/25 07:44:27;;;;;;;12.20;7.10;;;28.40;1.00;;;;;;4998147;28;20196;-56
2023/06/25 07:46:53;;;;;;;7.43;6.23;;;28.70;1.00;;;;;;4997818;28;20439;-55
2023/06/25 07:49:18;;;;;;;9.33;7.07;;;29.00;1.00;;;;;;5013367;28;20188;-55
2023/06/25 07:51:46;;;;;;;9.77;8.40;;;29.20;99.90;;;;;;4997884;28;20196;-55
2023/06/25 07:54:12;;;;;;;10.70;8.97;;;29.00;99.90;;;;;;4997783;28;20239;-55
2023/06/25 07:56:37;;;;;;;11.03;8.70;;;28.70;99.90;;;;;;4997815;28;20955;-55
2023/06/25 07:59:03;;;;;;;11.77;8.90;;;28.50;99.90;;;;;;4998421;28;20442;-56
2023/06/25 08:01:29;;;;;;;12.40;8.93;;;28.50;99.90;;;;;;4997879;28;20184;-56
2023/06/25 08:03:56;;;;;;;13.63;9.40;;;28.60;99.90;;;;;;4997901;28;20193;-55
2023/06/25 08:06:21;;;;;;;11.57;8.57;;;28.70;99.90;;;;;;4998200;28;20185;-56
2023/06/25 08:08:47;;;;;;;10.50;7.87;;;28.90;99.90;;;;;;4997187;28;20492;-56
2023/06/25 08:11:13;;;;;;;12.87;7.90;;;29.40;99.90;;;;;;5002045;28;20645;-56
2023/06/25 08:13:39;;;;;;;12.67;8.53;;;29.80;99.90;;;;;;5001698;28;20213;-56
2023/06/25 08:16:04;;;;;;;10.50;8.27;;;29.80;99.90;;;;;;4997718;28;20200;-56
2023/06/25 08:18:30;;;;;;;9.53;7.77;;;29.80;99.90;;;;;;4997489;28;20435;-56
2023/06/25 08:20:55;;;;;;;11.73;8.80;;;29.70;99.90;;;;;;4996905;28;20641;-56
2023/06/25 08:23:21;;;;;;;13.03;9.23;;;29.70;99.90;;;;;;5001211;28;20193;-56
2023/06/25 08:25:47;;;;;;;10.67;8.10;;;29.40;99.90;;;;;;4997682;28;20272;-56
2023/06/25 08:28:13;;;;;;;14.23;8.50;;;29.50;99.90;;;;;;4997449;28;20656;-56
2023/06/25 08:30:39;;;;;;;11.47;8.77;;;29.90;99.90;;;;;;4997314;28;20448;-56
2023/06/25 08:33:05;;;;;;;12.30;8.60;;;30.10;99.90;;;;;;4997378;28;20220;-56
2023/06/25 08:35:30;;;;;;;13.03;9.73;;;30.40;99.90;;;;;;4997831;28;20432;-56
2023/06/25 08:37:56;;;;;;;9.77;8.23;;;30.50;99.90;;;;;;4996671;28;20189;-56
2023/06/25 08:40:22;;;;;;;11.83;9.27;;;30.70;99.90;;;;;;4997668;28;20180;-57
2023/06/25 08:42:49;;;;;;;10.23;8.23;;;30.70;99.90;;;;;;4996915;28;20286;-56
2023/06/25 08:45:14;;;;;;;10.40;8.50;;;31.00;99.90;;;;;;4996679;28;20860;-56
2023/06/25 08:47:41;;;;;;;11.10;8.10;;;31.20;99.90;;;;;;5004478;28;20439;-57
2023/06/25 08:50:08;;;;;;;8.93;7.90;;;31.40;99.90;;;;;;4998749;28;20189;-57
2023/06/25 08:52:34;;;;;;;9.07;8.17;;;31.50;99.90;;;;;;5003574;28;20999;-57
2023/06/25 08:55:00;;;;;;;9.33;8.40;;;31.60;99.90;;;;;;4996381;28;20466;-57
2023/06/25 08:57:26;;;;;;;9.33;8.40;;;31.70;99.90;;;;;;5000694;28;20446;-57
2023/06/25 08:59:52;;;;;;;11.00;8.77;;;31.60;99.90;;;;;;4996429;28;20192;-57
2023/06/25 09:02:18;;;;;;;13.37;9.83;;;31.60;99.90;;;;;;4997128;28;20192;-56
2023/06/25 09:04:46;;;;;;;10.03;8.33;;;31.70;99.90;;;;;;4996871;28;20947;-56
2023/06/25 09:07:16;;;;;;;10.37;9.20;;;31.70;99.90;;;;;;4996482;28;20244;-57
2023/06/25 09:09:43;;;;;;;9.80;8.80;;;31.60;99.90;;;;;;4997095;28;20505;-56
2023/06/25 09:12:10;;;;;;;12.30;9.00;;;31.60;99.90;;;;;;4996642;28;20432;-56
2023/06/25 09:14:35;;;;;;;10.30;8.87;;;31.30;99.90;;;;;;4996797;28;20444;-56
2023/06/25 09:17:02;;;;;;;9.30;8.40;;;31.40;99.90;;;;;;4996069;28;20428;-56
2023/06/25 09:19:28;;;;;;;11.23;9.00;;;31.60;99.90;;;;;;4996573;28;20264;-57
2023/06/25 09:21:53;;;;;;;11.20;9.40;;;32.00;99.90;;;;;;4996772;28;21020;-56
2023/06/25 09:24:21;;;;;;;9.40;8.13;;;32.20;99.90;;;;;;4997886;28;20219;-58
2023/06/25 09:26:53;;;;;;;10.10;8.87;;;32.00;99.90;;;;;;5001736;28;20714;-57
2023/06/25 09:29:21;;;;;;;8.50;7.60;;;31.90;99.90;;;;;;4999703;28;20970;-57
2023/06/25 09:31:48;;;;;;;10.07;8.87;;;31.70;99.90;;;;;;4999485;28;20546;-56
2023/06/25 09:34:18;;;;;;;9.80;7.70;;;31.50;99.90;;;;;;4995656;28;20468;-57
2023/06/25 09:36:45;;;;;;;9.90;8.37;;;31.40;99.90;;;;;;4995872;28;20483;-57
2023/06/25 09:39:12;;;;;;;8.80;8.00;;;30.80;99.90;;;;;;4996092;28;20447;-56
2023/06/25 09:41:40;;;;;;;8.20;7.03;;;30.50;99.90;;;;;;4995813;28;20804;-57
2023/06/25 09:44:06;;;;;;;8.20;7.43;;;30.80;99.90;;;;;;4997127;28;20789;-57
2023/06/25 09:46:34;;;;;;;8.40;7.60;;;31.50;99.90;;;;;;4995717;28;20454;-58
2023/06/25 09:49:03;;;;;;;8.77;7.97;;;31.90;99.90;;;;;;4995582;28;20440;-58
2023/06/25 09:51:55;;;;;;;7.90;7.10;;;32.10;99.90;;;;;;4995596;28;20448;-59
2023/06/25 09:54:22;;;;;;;11.23;8.03;;;32.60;99.90;;;;;;4995085;28;20488;-57
2023/06/25 09:56:49;;;;;;;8.27;7.47;;;33.00;99.90;;;;;;4995995;28;20440;-58
2023/06/25 09:59:16;;;;;;;7.90;7.07;;;33.50;99.90;;;;;;4996014;28;20455;-57
2023/06/25 10:01:41;;;;;;;8.80;8.00;;;33.40;99.90;;;;;;4995776;28;20963;-58
2023/06/25 10:04:08;;;;;;;13.40;8.10;;;33.40;99.90;;;;;;4999229;28;20558;-58
2023/06/25 10:06:35;;;;;;;7.47;6.77;;;33.60;99.90;;;;;;4999647;28;20331;-58
2023/06/25 10:09:02;;;;;;;8.53;7.53;;;33.60;99.90;;;;;;5002765;28;20439;-59
2023/06/25 10:11:28;;;;;;;8.10;7.30;;;33.60;99.90;;;;;;4996577;28;20436;-58
2023/06/25 10:13:54;;;;;;;7.30;6.60;;;33.50;99.90;;;;;;4995590;28;20518;-58
2023/06/25 10:16:20;;;;;;;8.40;7.60;;;33.60;99.90;;;;;;4999236;28;20196;-57
2023/06/25 10:18:47;;;;;;;8.60;7.83;;;33.80;99.90;;;;;;4995646;28;20283;-57
2023/06/25 10:21:20;;;;;;;8.63;7.03;;;33.90;99.90;;;;;;4995557;28;20446;-58
2023/06/25 10:24:03;;;;;;;9.77;7.10;;;34.10;99.90;;;;;;4995815;28;20526;-57
2023/06/25 10:26:33;;;;;;;8.97;6.00;;;34.20;99.90;;;;;;4998560;28;20478;-58
2023/06/25 10:29:01;;;;;;;8.13;7.10;;;34.20;99.90;;;;;;4998744;28;20531;-57
2023/06/25 10:31:35;;;;;;;7.33;5.23;;;33.30;99.90;;;;;;4995421;28;20515;-57
2023/06/25 10:34:08;;;;;;;11.23;6.60;;;31.80;99.90;;;;;;4995578;28;20513;-57
2023/06/25 10:36:34;;;;;;;9.30;7.13;;;31.20;99.90;;;;;;4998609;28;20466;-57
2023/06/25 10:39:00;;;;;;;6.37;5.87;;;31.70;99.90;;;;;;4995880;28;20515;-58
2023/06/25 10:41:30;;;;;;;7.83;7.03;;;32.60;99.90;;;;;;4994824;28;20871;-57
2023/06/25 10:43:57;;;;;;;6.67;6.07;;;33.00;99.90;;;;;;4998886;28;20450;-58
2023/06/25 10:46:32;;;;;;;6.97;5.90;;;33.20;99.90;;;;;;4998577;28;20534;-58
2023/06/25 10:49:01;;;;;;;7.30;6.07;;;33.80;99.90;;;;;;4998376;28;21016;-57
2023/06/25 10:51:28;;;;;;;7.80;6.30;;;33.80;99.90;;;;;;4994716;28;20510;-57
2023/06/25 10:53:55;;;;;;;7.60;6.80;;;32.70;99.90;;;;;;4994452;28;20533;-57
2023/06/25 10:56:22;;;;;;;7.80;6.90;;;31.70;99.90;;;;;;4998625;28;20443;-57
2023/06/25 10:58:56;;;;;;;6.67;6.03;;;30.70;99.90;;;;;;4998920;28;20448;-57
2023/06/25 11:01:22;;;;;;;7.53;6.43;;;30.60;99.90;;;;;;4994833;28;20474;-57
2023/06/25 11:03:48;;;;;;;7.10;6.50;;;31.30;99.90;;;;;;4997285;28;20439;-57
2023/06/25 11:06:13;;;;;;;6.73;6.03;;;32.30;99.90;;;;;;4999023;28;20246;-57
2023/06/25 11:08:42;;;;;;;6.83;6.10;;;33.10;99.90;;;;;;4998595;28;20185;-58
2023/06/25 11:11:07;;;;;;;6.90;6.30;;;33.60;99.90;;;;;;5003494;28;20200;-57
2023/06/25 11:13:33;;;;;;;6.43;5.83;;;34.40;99.90;;;;;;4999316;28;20614;-58
2023/06/25 11:15:59;;;;;;;6.37;5.80;;;34.00;99.90;;;;;;4997994;28;20215;-57
2023/06/25 11:18:24;;;;;;;6.30;5.80;;;33.30;99.90;;;;;;4999442;28;20188;-57
2023/06/25 11:20:50;;;;;;;7.53;6.57;;;32.40;99.90;;;;;;4998611;28;20640;-58
2023/06/25 11:23:16;;;;;;;7.53;6.70;;;32.20;99.90;;;;;;5002579;28;20218;-57
2023/06/25 11:25:42;;;;;;;8.30;6.50;;;32.40;99.90;;;;;;4997643;28;20180;-57
2023/06/25 11:28:11;;;;;;;6.17;5.60;;;33.00;99.90;;;;;;4999144;28;20189;-57
2023/06/25 11:30:37;;;;;;;5.30;4.80;;;33.50;99.90;;;;;;4998579;28;20687;-58
2023/06/25 11:33:10;;;;;;;7.33;6.63;;;33.60;99.90;;;;;;4997888;28;20467;-57
2023/06/25 11:35:36;;;;;;;7.20;6.50;;;33.40;99.90;;;;;;4998867;28;20543;-57
2023/06/25 11:38:02;;;;;;;6.80;6.20;;;33.60;99.90;;;;;;4998162;28;20447;-57
2023/06/25 11:40:30;;;;;;;8.10;5.90;;;34.40;99.90;;;;;;4998008;28;20436;-58
2023/06/25 11:42:56;;;;;;;6.67;6.10;;;34.80;99.90;;;;;;4998389;28;20227;-58
2023/06/25 11:45:22;;;;;;;7.70;6.70;;;35.30;99.90;;;;;;4998197;28;20478;-58
2023/06/25 11:47:53;;;;;;;6.93;6.30;;;35.50;99.90;;;;;;4998275;28;20196;-56
2023/06/25 11:50:27;;;;;;;6.40;5.90;;;35.20;99.90;;;;;;5001281;28;20493;-58
2023/06/25 11:52:54;;;;;;;7.40;6.63;;;35.20;99.90;;;;;;4997913;28;20575;-58
2023/06/25 11:55:21;;;;;;;6.53;5.93;;;35.20;99.90;;;;;;4998494;28;20923;-58
2023/06/25 11:57:48;;;;;;;6.67;5.97;;;34.80;99.90;;;;;;4997925;28;20431;-57
2023/06/25 12:00:14;;;;;;;7.40;6.23;;;34.70;99.90;;;;;;4998428;28;20600;-57
2023/06/25 12:02:39;;;;;;;8.53;6.37;;;34.60;99.90;;;;;;5004723;28;20431;-58
2023/06/25 12:05:06;;;;;;;6.90;6.30;;;34.60;99.90;;;;;;5002878;28;20447;-58
2023/06/25 12:07:32;;;;;;;6.40;5.80;;;34.90;99.90;;;;;;5001567;28;21118;-58
2023/06/25 12:09:57;;;;;;;8.10;5.90;;;35.10;99.90;;;;;;4997044;28;20431;-59
2023/06/25 12:12:23;;;;;;;8.97;6.47;;;35.60;99.90;;;;;;4997479;28;20204;-57
2023/06/25 12:14:48;;;;;;;7.10;6.50;;;35.80;99.90;;;;;;4997264;28;20199;-57
2023/06/25 12:17:15;;;;;;;5.40;5.00;;;35.50;99.90;;;;;;5002484;28;20593;-58
2023/06/25 12:19:41;;;;;;;5.40;4.93;;;35.60;99.90;;;;;;5000650;28;20662;-57
2023/06/25 12:22:07;;;;;;;6.40;5.70;;;35.80;99.90;;;;;;5001750;28;20471;-57
2023/06/25 12:24:33;;;;;;;6.17;5.60;;;35.20;99.90;;;;;;5001656;28;20990;-58
2023/06/25 12:26:58;;;;;;;6.43;5.30;;;34.30;99.90;;;;;;4997119;28;20539;-58
2023/06/25 12:29:24;;;;;;;6.20;5.67;;;34.50;99.90;;;;;;4997139;28;20214;-57
2023/06/25 12:31:49;;;;;;;6.53;5.63;;;34.90;99.90;;;;;;4997788;28;20276;-57